createdAt,value
2017-11-01T00:01:53.291Z,10.87
2017-11-01T00:04:19.906Z,10.43
2017-11-01T00:06:46.548Z,14.80
2017-11-01T00:09:13.151Z,10.80
2017-11-01T00:11:39.784Z,10.80
2017-11-01T00:14:06.378Z,11.93
2017-11-01T00:16:33.088Z,14.57
2017-11-01T00:18:59.685Z,13.50
2017-11-01T00:21:26.301Z,11.70
2017-11-01T00:23:52.934Z,10.87
2017-11-01T00:26:19.640Z,14.70
2017-11-01T00:28:46.277Z,11.07
2017-11-01T00:31:12.868Z,11.30
2017-11-01T00:33:39.488Z,12.37
2017-11-01T00:36:06.102Z,11.13
2017-11-01T00:38:32.720Z,12.53
2017-11-01T00:40:59.324Z,10.60
2017-11-01T00:43:25.965Z,12.07
2017-11-01T00:45:52.571Z,10.77
2017-11-01T00:48:19.177Z,14.20
2017-11-01T00:50:45.921Z,13.53
2017-11-01T00:53:12.530Z,12.63
2017-11-01T00:55:39.124Z,11.80
2017-11-01T00:58:05.771Z,12.17
2017-11-01T01:00:32.380Z,15.60
2017-11-01T01:02:58.981Z,13.30
2017-11-01T01:05:25.621Z,14.80
2017-11-01T01:07:52.233Z,14.10
2017-11-01T01:10:18.838Z,14.20
2017-11-01T01:12:45.481Z,17.90
2017-11-01T01:15:12.104Z,16.57
2017-11-01T01:17:38.751Z,14.87
2017-11-01T01:20:05.364Z,13.40
2017-11-01T01:22:31.953Z,14.23
2017-11-01T01:24:58.590Z,12.23
2017-11-01T01:27:25.195Z,13.73
2017-11-01T01:29:51.818Z,13.40
2017-11-01T01:32:18.445Z,15.90
2017-11-01T01:34:45.091Z,14.10
2017-11-01T01:37:11.687Z,17.27
2017-11-01T01:39:38.320Z,13.63
2017-11-01T01:42:04.929Z,11.60
2017-11-01T01:44:31.540Z,13.83
2017-11-01T01:46:58.156Z,13.07
2017-11-01T01:49:24.778Z,16.63
2017-11-01T01:51:51.381Z,14.03
2017-11-01T01:54:18.000Z,13.20
2017-11-01T01:56:44.607Z,15.47
2017-11-01T01:59:11.222Z,11.90
2017-11-01T02:01:37.829Z,15.47
2017-11-01T02:04:04.457Z,12.63
2017-11-01T02:06:31.056Z,14.37
2017-11-01T02:08:57.686Z,12.17
2017-11-01T02:11:24.291Z,15.67
2017-11-01T02:13:50.917Z,13.13
2017-11-01T02:16:17.527Z,18.00
2017-11-01T02:18:44.149Z,11.03
2017-11-01T02:21:10.740Z,12.67
2017-11-01T02:23:37.361Z,10.20
2017-11-01T02:26:03.989Z,14.90
2017-11-01T02:28:30.596Z,10.23
2017-11-01T02:30:57.194Z,11.03
2017-11-01T02:33:23.814Z,10.00
2017-11-01T02:35:50.422Z,12.67
2017-11-01T02:38:17.045Z,10.57
2017-11-01T02:40:43.708Z,10.00
2017-11-01T02:43:10.309Z,10.30
2017-11-01T02:45:36.929Z,10.93
2017-11-01T02:48:03.537Z,10.53
2017-11-01T02:50:30.162Z,13.60
2017-11-01T02:52:56.782Z,11.57
2017-11-01T02:55:23.377Z,10.97
2017-11-01T02:57:49.996Z,10.60
2017-11-01T03:00:16.613Z,9.60
2017-11-01T03:02:43.240Z,10.87
2017-11-01T03:05:09.866Z,10.33
2017-11-01T03:07:36.506Z,10.73
2017-11-01T03:10:03.093Z,17.07
2017-11-01T03:12:29.702Z,13.30
2017-11-01T03:14:56.326Z,11.07
2017-11-01T03:17:22.929Z,11.80
2017-11-01T03:19:49.548Z,12.43
2017-11-01T03:22:16.153Z,10.87
2017-11-01T03:24:42.753Z,14.93
2017-11-01T03:27:09.405Z,17.63
2017-11-01T03:29:36.001Z,14.53
2017-11-01T03:32:02.629Z,17.73
2017-11-01T03:34:29.252Z,12.83
2017-11-01T03:36:55.886Z,16.33
2017-11-01T03:39:22.497Z,12.83
2017-11-01T03:41:49.105Z,13.80
2017-11-01T03:44:15.757Z,15.93
2017-11-01T03:46:42.369Z,18.10
2017-11-01T03:49:08.974Z,17.40
2017-11-01T03:51:35.596Z,13.47
2017-11-01T03:54:02.205Z,15.73
2017-11-01T03:56:28.833Z,18.80
2017-11-01T03:58:55.491Z,15.80
2017-11-01T04:01:22.089Z,18.00
2017-11-01T04:03:48.712Z,15.80
2017-11-01T04:06:15.403Z,16.20
2017-11-01T04:08:42.021Z,13.83
2017-11-01T04:11:08.626Z,16.30
2017-11-01T04:13:35.229Z,16.03
2017-11-01T04:16:01.955Z,15.30
2017-11-01T04:18:37.420Z,14.57
2017-11-01T04:21:04.050Z,17.47
2017-11-01T04:23:30.657Z,15.87
2017-11-01T04:25:57.272Z,13.33
2017-11-01T04:28:23.889Z,14.90
2017-11-01T04:30:50.588Z,14.60
2017-11-01T04:33:17.225Z,14.40
2017-11-01T04:35:43.867Z,17.53
2017-11-01T04:38:10.461Z,16.00
2017-11-01T04:40:37.095Z,13.70
2017-11-01T04:43:03.709Z,13.37
2017-11-01T04:45:30.326Z,12.47
2017-11-01T04:47:59.524Z,13.00
2017-11-01T04:50:28.726Z,12.47
2017-11-01T04:52:55.351Z,14.17
2017-11-01T04:55:21.974Z,11.50
2017-11-01T04:57:48.601Z,17.60
2017-11-01T05:00:20.962Z,14.03
2017-11-01T05:02:47.589Z,15.77
2017-11-01T05:05:15.010Z,11.83
2017-11-01T05:07:41.644Z,14.30
2017-11-01T05:10:08.249Z,12.13
2017-11-01T05:12:43.505Z,14.73
2017-11-01T05:15:13.039Z,11.87
2017-11-01T05:17:39.650Z,11.30
2017-11-01T05:20:06.281Z,14.63
2017-11-01T05:22:32.921Z,11.50
2017-11-01T05:24:59.521Z,13.07
2017-11-01T05:27:26.161Z,13.00
2017-11-01T05:29:52.777Z,13.80
2017-11-01T05:32:19.420Z,12.73
2017-11-01T05:34:46.034Z,12.37
2017-11-01T05:37:12.747Z,12.43
2017-11-01T05:39:39.357Z,16.00
2017-11-01T05:42:06.022Z,12.33
2017-11-01T05:44:32.629Z,12.40
2017-11-01T05:46:59.252Z,13.30
2017-11-01T05:49:25.885Z,13.67
2017-11-01T05:51:52.574Z,12.13
2017-11-01T05:54:19.169Z,10.60
2017-11-01T05:56:45.826Z,11.83
2017-11-01T05:59:12.430Z,17.10
2017-11-01T06:01:39.041Z,12.07
2017-11-01T06:04:05.677Z,17.80
2017-11-01T06:06:32.274Z,11.17
2017-11-01T06:08:58.937Z,13.80
2017-11-01T06:11:25.552Z,13.40
2017-11-01T06:13:52.211Z,13.33
2017-11-01T06:16:18.829Z,10.27
2017-11-01T06:18:45.468Z,11.67
2017-11-01T06:21:12.069Z,11.13
2017-11-01T06:23:38.680Z,11.93
2017-11-01T06:26:05.305Z,14.77
2017-11-01T06:28:32.042Z,11.83
2017-11-01T06:30:58.653Z,11.87
2017-11-01T06:33:25.269Z,13.63
2017-11-01T06:35:51.886Z,9.93
2017-11-01T06:38:18.534Z,10.90
2017-11-01T06:40:45.146Z,11.17
2017-11-01T06:43:11.752Z,13.83
2017-11-01T06:45:38.503Z,12.37
2017-11-01T06:48:05.102Z,12.73
2017-11-01T06:50:31.715Z,13.37
2017-11-01T06:52:58.360Z,13.70
2017-11-01T06:55:24.964Z,16.70
2017-11-01T06:57:51.572Z,12.13
2017-11-01T07:00:18.184Z,16.40
2017-11-01T07:02:44.826Z,12.77
2017-11-01T07:05:14.212Z,12.70
2017-11-01T07:07:40.858Z,13.20
2017-11-01T07:10:07.452Z,11.60
2017-11-01T07:12:34.066Z,12.47
2017-11-01T07:15:00.686Z,14.90
2017-11-01T07:17:27.298Z,12.83
2017-11-01T07:19:53.921Z,13.20
2017-11-01T07:22:20.578Z,15.10
2017-11-01T07:24:47.187Z,15.33
2017-11-01T07:27:13.790Z,12.43
2017-11-01T07:29:40.417Z,14.07
2017-11-01T07:32:07.041Z,12.83
2017-11-01T07:34:33.653Z,12.43
2017-11-01T07:37:00.274Z,11.40
2017-11-01T07:39:26.906Z,14.47
2017-11-01T07:41:53.513Z,9.27
2017-11-01T07:44:20.117Z,10.57
2017-11-01T07:46:46.737Z,10.93
2017-11-01T07:49:13.341Z,17.83
2017-11-01T07:51:39.971Z,13.50
2017-11-01T07:54:06.577Z,12.73
2017-11-01T07:56:33.201Z,13.97
2017-11-01T07:58:59.803Z,12.37
2017-11-01T08:01:26.463Z,13.00
2017-11-01T08:03:53.164Z,15.40
2017-11-01T08:06:19.765Z,14.90
2017-11-01T08:08:46.401Z,18.30
2017-11-01T08:11:13.041Z,13.20
2017-11-01T08:13:39.650Z,13.60
2017-11-01T08:16:06.248Z,13.87
2017-11-01T08:18:32.864Z,13.37
2017-11-01T08:20:59.488Z,15.00
2017-11-01T08:23:26.113Z,18.63
2017-11-01T08:25:52.713Z,15.77
2017-11-01T08:28:19.345Z,12.93
2017-11-01T08:30:46.078Z,11.37
2017-11-01T08:33:12.694Z,12.97
2017-11-01T08:35:39.309Z,19.50
2017-11-01T08:38:05.905Z,16.53
2017-11-01T08:40:32.521Z,15.63
2017-11-01T08:42:59.169Z,14.87
2017-11-01T08:45:25.777Z,12.33
2017-11-01T08:47:52.388Z,12.30
2017-11-01T08:50:19.009Z,13.40
2017-11-01T08:52:45.629Z,13.27
2017-11-01T08:55:12.233Z,15.43
2017-11-01T08:57:38.854Z,12.73
2017-11-01T09:00:05.532Z,16.83
2017-11-01T09:02:32.154Z,15.20
2017-11-01T09:04:58.906Z,17.30
2017-11-01T09:07:25.510Z,13.93
2017-11-01T09:09:52.105Z,14.60
2017-11-01T09:12:18.724Z,16.47
2017-11-01T09:14:45.361Z,16.83
2017-11-01T09:17:11.977Z,14.97
2017-11-01T09:19:38.584Z,14.00
2017-11-01T09:22:05.216Z,13.47
2017-11-01T09:24:31.849Z,13.77
2017-11-01T09:26:58.449Z,13.80
2017-11-01T09:29:25.074Z,12.90
2017-11-01T09:31:51.704Z,11.30
2017-11-01T09:34:18.354Z,12.90
2017-11-01T09:36:44.957Z,11.20
2017-11-01T09:39:11.585Z,9.73
2017-11-01T09:41:38.223Z,12.57
2017-11-01T09:44:04.906Z,11.00
2017-11-01T09:46:31.516Z,9.93
2017-11-01T09:48:58.121Z,10.70
2017-11-01T09:51:24.749Z,11.70
2017-11-01T09:53:51.381Z,10.57
2017-11-01T09:56:17.994Z,10.90
2017-11-01T09:58:44.593Z,12.27
2017-11-01T10:01:11.231Z,9.93
2017-11-01T10:03:37.837Z,10.17
2017-11-01T10:06:04.433Z,13.20
2017-11-01T10:08:31.073Z,12.47
2017-11-01T10:10:57.673Z,10.20
2017-11-01T10:13:24.265Z,9.80
2017-11-01T10:15:50.893Z,13.40
2017-11-01T10:18:17.494Z,9.47
2017-11-01T10:20:44.141Z,10.07
2017-11-01T10:23:10.738Z,11.93
2017-11-01T10:25:37.365Z,10.10
2017-11-01T10:28:03.969Z,9.37
2017-11-01T10:30:30.575Z,9.83
2017-11-01T10:32:57.250Z,9.43
2017-11-01T10:35:23.993Z,9.83
2017-11-01T10:37:50.854Z,9.87
2017-11-01T10:40:17.463Z,10.30
2017-11-01T10:42:44.110Z,12.77
2017-11-01T10:45:10.733Z,10.27
2017-11-01T10:47:37.386Z,10.10
2017-11-01T10:50:04.025Z,10.07
2017-11-01T10:52:30.635Z,13.70
2017-11-01T10:54:57.242Z,9.23
2017-11-01T10:57:23.864Z,14.83
2017-11-01T10:59:50.580Z,10.23
2017-11-01T11:02:17.161Z,9.50
2017-11-01T11:04:43.801Z,9.63
2017-11-01T11:07:10.489Z,9.30
2017-11-01T11:09:37.078Z,9.47
2017-11-01T11:12:03.774Z,8.90
2017-11-01T11:14:30.537Z,8.83
2017-11-01T11:16:57.240Z,10.10
2017-11-01T11:19:23.833Z,10.87
2017-11-01T11:21:50.434Z,13.50
2017-11-01T11:24:17.057Z,10.13
2017-11-01T11:26:43.701Z,9.03
2017-11-01T11:29:10.333Z,11.83
2017-11-01T11:31:36.969Z,9.40
2017-11-01T11:34:03.610Z,12.00
2017-11-01T11:36:30.213Z,12.00
2017-11-01T11:38:56.826Z,9.77
2017-11-01T11:41:23.474Z,12.77
2017-11-01T11:43:50.085Z,10.80
2017-11-01T11:46:16.704Z,9.93
2017-11-01T11:48:43.352Z,11.17
2017-11-01T11:51:09.946Z,12.70
2017-11-01T11:53:36.561Z,12.27
2017-11-01T11:56:03.177Z,9.30
2017-11-01T11:58:29.781Z,10.87
2017-11-01T12:00:56.419Z,11.90
2017-11-01T12:03:23.017Z,12.07
2017-11-01T12:05:49.637Z,11.17
2017-11-01T12:08:16.241Z,15.63
2017-11-01T12:10:42.970Z,15.10
2017-11-01T12:13:09.570Z,11.77
2017-11-01T12:15:36.245Z,13.67
2017-11-01T12:18:02.857Z,12.30
2017-11-01T12:20:29.468Z,9.00
2017-11-01T12:22:56.098Z,11.90
2017-11-01T12:25:22.708Z,11.10
2017-11-01T12:27:49.323Z,11.20
2017-11-01T12:30:15.933Z,12.90
2017-11-01T12:32:42.525Z,9.43
2017-11-01T12:35:09.245Z,8.90
2017-11-01T12:37:35.833Z,9.47
2017-11-01T12:40:02.522Z,9.10
2017-11-01T12:42:29.159Z,9.53
2017-11-01T12:44:55.766Z,7.87
2017-11-01T12:47:22.365Z,8.70
2017-11-01T12:49:48.986Z,7.37
2017-11-01T12:52:15.595Z,8.37
2017-11-01T12:54:42.209Z,7.60
2017-11-01T12:57:08.813Z,7.50
2017-11-01T12:59:35.521Z,8.30
2017-11-01T13:02:02.129Z,11.20
2017-11-01T13:04:28.746Z,10.40
2017-11-01T13:06:55.380Z,14.90
2017-11-01T13:09:21.982Z,8.23
2017-11-01T13:11:48.608Z,9.50
2017-11-01T13:14:15.248Z,13.83
2017-11-01T13:16:41.877Z,7.50
2017-11-01T13:19:08.525Z,9.47
2017-11-01T13:21:35.149Z,7.40
2017-11-01T13:24:01.771Z,13.43
2017-11-01T13:26:28.416Z,11.73
2017-11-01T13:28:55.033Z,9.70
2017-11-01T13:31:21.633Z,8.03
2017-11-01T13:33:48.261Z,6.97
2017-11-01T13:36:14.862Z,7.33
2017-11-01T13:38:41.482Z,10.50
2017-11-01T13:41:08.078Z,6.70
2017-11-01T13:43:34.686Z,5.47
2017-11-01T13:46:01.287Z,6.33
2017-11-01T13:48:27.909Z,8.67
2017-11-01T13:50:54.516Z,7.03
2017-11-01T13:53:21.120Z,6.30
2017-11-01T13:55:47.713Z,6.83
2017-11-01T13:58:14.353Z,7.60
2017-11-01T14:00:40.949Z,5.33
2017-11-01T14:03:07.555Z,8.57
2017-11-01T14:05:34.174Z,12.83
2017-11-01T14:08:00.772Z,7.30
2017-11-01T14:10:27.385Z,7.23
2017-11-01T14:12:54.010Z,8.90
2017-11-01T14:15:20.611Z,7.27
2017-11-01T14:17:47.316Z,7.70
2017-11-01T14:20:13.929Z,11.27
2017-11-01T14:22:40.521Z,7.03
2017-11-01T14:25:07.153Z,8.80
2017-11-01T14:27:33.751Z,5.80
2017-11-01T14:30:00.353Z,10.23
2017-11-01T14:32:26.969Z,6.00
2017-11-01T14:34:53.601Z,7.53
2017-11-01T14:37:20.230Z,6.33
2017-11-01T14:39:46.853Z,6.10
2017-11-01T14:42:13.454Z,7.30
2017-11-01T14:44:40.065Z,8.27
2017-11-01T14:47:06.665Z,8.03
2017-11-01T14:49:33.290Z,7.50
2017-11-01T14:51:59.895Z,6.60
2017-11-01T14:54:26.541Z,6.30
2017-11-01T14:56:53.213Z,7.80
2017-11-01T14:59:19.813Z,6.97
2017-11-01T15:01:46.537Z,7.33
2017-11-01T15:04:13.134Z,10.03
2017-11-01T15:06:39.813Z,7.27
2017-11-01T15:09:06.442Z,7.40
2017-11-01T15:11:33.049Z,6.67
2017-11-01T15:13:59.673Z,6.80
2017-11-01T15:16:26.288Z,6.07
2017-11-01T15:18:53.003Z,4.93
2017-11-01T15:21:19.594Z,7.20
2017-11-01T15:23:46.207Z,7.50
2017-11-01T15:26:12.810Z,5.63
2017-11-01T15:28:39.430Z,6.37
2017-11-01T15:31:06.062Z,8.83
2017-11-01T15:33:32.660Z,7.60
2017-11-01T15:35:59.364Z,6.67
2017-11-01T15:38:26.008Z,8.47
2017-11-01T15:40:52.648Z,9.57
2017-11-01T15:43:19.381Z,6.60
2017-11-01T15:45:45.977Z,8.60
2017-11-01T15:48:12.629Z,9.00
2017-11-01T15:50:39.237Z,8.50
2017-11-01T15:53:05.866Z,6.90
2017-11-01T15:55:32.469Z,6.10
2017-11-01T15:57:59.197Z,7.27
2017-11-01T16:00:25.808Z,8.93
2017-11-01T16:02:52.420Z,6.53
2017-11-01T16:05:19.049Z,9.00
2017-11-01T16:07:45.756Z,9.07
2017-11-01T16:10:12.385Z,7.60
2017-11-01T16:12:39.001Z,11.37
2017-11-01T16:15:05.663Z,8.20
2017-11-01T16:17:32.272Z,10.93
2017-11-01T16:19:58.938Z,9.20
2017-11-01T16:22:25.537Z,9.93
2017-11-01T16:24:52.166Z,8.27
2017-11-01T16:27:18.761Z,8.63
2017-11-01T16:29:45.377Z,9.23
2017-11-01T16:32:11.993Z,9.93
2017-11-01T16:34:38.615Z,7.23
2017-11-01T16:37:05.215Z,8.73
2017-11-01T16:39:31.836Z,7.27
2017-11-01T16:41:58.441Z,8.03
2017-11-01T16:44:25.047Z,11.87
2017-11-01T16:49:24.877Z,7.07
2017-11-01T16:51:51.580Z,8.93
2017-11-01T16:54:18.165Z,9.57
2017-11-01T16:56:44.802Z,8.57
2017-11-01T16:59:11.445Z,9.77
2017-11-01T17:01:38.090Z,11.97
2017-11-01T17:04:04.768Z,8.50
2017-11-01T17:06:31.381Z,12.90
2017-11-01T17:08:57.995Z,8.30
2017-11-01T17:11:24.624Z,15.63
2017-11-01T17:13:51.254Z,11.47
2017-11-01T17:16:17.897Z,10.60
2017-11-01T17:18:44.509Z,10.10
2017-11-01T17:21:11.133Z,13.87
2017-11-01T17:23:37.733Z,11.53
2017-11-01T17:26:04.368Z,10.23
2017-11-01T17:28:30.985Z,14.70
2017-11-01T17:30:57.605Z,10.90
2017-11-01T17:33:24.241Z,11.97
2017-11-01T17:35:50.927Z,13.83
2017-11-01T17:38:17.578Z,12.17
2017-11-01T17:40:44.236Z,14.50
2017-11-01T17:43:10.985Z,11.23
2017-11-01T17:45:37.609Z,13.47
2017-11-01T17:48:04.463Z,15.40
2017-11-01T17:50:31.102Z,13.00
2017-11-01T17:52:57.744Z,13.73
2017-11-01T17:55:24.353Z,12.20
2017-11-01T17:57:52.374Z,12.60
2017-11-01T18:00:19.085Z,9.83
2017-11-01T18:02:45.685Z,11.17
2017-11-01T18:05:12.301Z,12.07
2017-11-01T18:07:38.933Z,10.60
2017-11-01T18:10:05.585Z,11.70
2017-11-01T18:12:32.253Z,13.80
2017-11-01T18:14:58.993Z,14.40
2017-11-01T18:17:25.586Z,10.77
2017-11-01T18:19:52.212Z,12.27
2017-11-01T18:22:18.870Z,11.83
2017-11-01T18:24:45.494Z,13.17
2017-11-01T18:27:12.152Z,12.10
2017-11-01T18:29:38.782Z,15.57
2017-11-01T18:32:05.425Z,12.80
2017-11-01T18:34:32.038Z,17.07
2017-11-01T18:36:58.645Z,14.17
2017-11-01T18:39:25.320Z,13.83
2017-11-01T18:41:51.990Z,14.83
2017-11-01T18:44:18.746Z,15.67
2017-11-01T18:46:45.400Z,13.80
2017-11-01T18:49:12.070Z,13.70
2017-11-01T18:51:38.682Z,15.97
2017-11-01T18:54:05.341Z,15.40
2017-11-01T18:56:31.982Z,16.90
2017-11-01T18:58:58.680Z,15.60
2017-11-01T19:01:25.364Z,16.83
2017-11-01T19:03:51.990Z,18.80
2017-11-01T19:06:18.618Z,17.93
2017-11-01T19:08:45.245Z,16.40
2017-11-01T19:11:11.882Z,17.30
2017-11-01T19:13:38.549Z,21.27
2017-11-01T19:16:05.157Z,22.47
2017-11-01T19:18:31.865Z,20.20
2017-11-01T19:20:58.593Z,19.07
2017-11-01T19:23:25.197Z,23.40
2017-11-01T19:25:51.947Z,20.57
2017-11-01T19:28:18.650Z,23.27
2017-11-01T19:30:45.268Z,18.20
2017-11-01T19:33:11.960Z,25.23
2017-11-01T19:35:38.585Z,17.30
2017-11-01T19:38:05.203Z,21.17
2017-11-01T19:40:31.836Z,24.20
2017-11-01T19:42:58.571Z,18.90
2017-11-01T19:45:25.173Z,19.50
2017-11-01T19:47:51.862Z,17.83
2017-11-01T19:50:18.530Z,24.03
2017-11-01T19:52:45.386Z,19.70
2017-11-01T19:55:12.030Z,17.40
2017-11-01T19:57:38.770Z,21.37
2017-11-01T20:00:05.450Z,20.50
2017-11-01T20:02:32.058Z,23.57
2017-11-01T20:04:58.749Z,23.80
2017-11-01T20:07:25.480Z,20.37
2017-11-01T20:09:52.252Z,22.67
2017-11-01T20:12:18.873Z,20.40
2017-11-01T20:14:45.590Z,21.00
2017-11-01T20:17:12.261Z,18.90
2017-11-01T20:19:38.933Z,19.27
2017-11-01T20:22:06.062Z,16.60
2017-11-01T20:24:32.804Z,17.13
2017-11-01T20:26:59.412Z,20.57
2017-11-01T20:29:26.094Z,15.43
2017-11-01T20:31:52.745Z,15.03
2017-11-01T20:34:19.612Z,18.70
2017-11-01T20:36:47.806Z,16.20
2017-11-01T20:39:14.972Z,16.43
2017-11-01T20:41:41.918Z,13.30
2017-11-01T20:44:08.976Z,16.73
2017-11-01T20:46:35.736Z,15.73
2017-11-01T20:49:02.377Z,12.60
2017-11-01T20:51:29.030Z,14.80
2017-11-01T20:53:55.721Z,17.13
2017-11-01T20:56:22.325Z,22.10
2017-11-01T20:58:49.097Z,12.60
2017-11-01T21:01:15.838Z,14.13
2017-11-01T21:03:42.543Z,13.00
2017-11-01T21:06:09.245Z,12.83
2017-11-01T21:08:35.845Z,12.43
2017-11-01T21:11:02.524Z,11.60
2017-11-01T21:13:29.217Z,18.33
2017-11-01T21:15:55.821Z,18.37
2017-11-01T21:18:22.451Z,16.37
2017-11-01T21:20:49.081Z,15.53
2017-11-01T21:23:15.752Z,15.47
2017-11-01T21:25:42.379Z,13.70
2017-11-01T21:28:09.038Z,12.43
2017-11-01T21:30:35.700Z,13.53
2017-11-01T21:33:02.296Z,11.10
2017-11-01T21:35:29.097Z,11.70
2017-11-01T21:37:55.720Z,9.67
2017-11-01T21:40:22.307Z,10.47
2017-11-01T21:42:48.920Z,11.27
2017-11-01T21:45:15.529Z,10.50
2017-11-01T21:47:42.164Z,7.90
2017-11-01T21:50:08.800Z,8.23
2017-11-01T21:52:35.414Z,10.93
2017-11-01T21:55:02.034Z,8.70
2017-11-01T21:57:28.785Z,8.70
2017-11-01T21:59:55.435Z,9.33
2017-11-01T22:02:22.196Z,11.03
2017-11-01T22:04:48.920Z,17.53
2017-11-01T22:07:15.723Z,9.80
2017-11-01T22:09:42.516Z,11.10
2017-11-01T22:12:09.154Z,9.70
2017-11-01T22:14:35.939Z,11.37
2017-11-01T22:17:02.819Z,9.10
2017-11-01T22:19:29.691Z,17.67
2017-11-01T22:21:56.299Z,10.70
2017-11-01T22:24:22.930Z,11.23
2017-11-01T22:26:49.529Z,10.27
2017-11-01T22:29:16.242Z,10.03
2017-11-01T22:31:42.853Z,12.03
2017-11-01T22:36:39.166Z,11.47
2017-11-01T22:39:05.762Z,11.97
2017-11-01T22:41:32.378Z,11.77
2017-11-01T22:43:58.990Z,14.40
2017-11-01T22:46:25.626Z,11.13
2017-11-01T22:48:52.250Z,11.10
2017-11-01T22:51:18.843Z,13.80
2017-11-01T22:53:45.465Z,9.47
2017-11-01T22:56:12.119Z,9.73
2017-11-01T22:58:38.709Z,11.60
2017-11-01T23:01:05.332Z,8.77
2017-11-01T23:03:31.966Z,10.07
2017-11-01T23:05:58.567Z,10.67
2017-11-01T23:08:25.169Z,13.63
2017-11-01T23:10:51.888Z,11.53
2017-11-01T23:13:18.485Z,12.33
2017-11-01T23:15:45.072Z,10.67
2017-11-01T23:18:11.689Z,11.40
2017-11-01T23:20:38.338Z,10.83
2017-11-01T23:23:04.944Z,10.57
2017-11-01T23:25:31.546Z,11.33
2017-11-01T23:27:58.148Z,11.37
2017-11-01T23:30:24.890Z,14.37
2017-11-01T23:32:51.523Z,17.00
2017-11-01T23:35:18.124Z,11.47
2017-11-01T23:37:44.770Z,9.83
2017-11-01T23:40:11.389Z,10.90
2017-11-01T23:42:37.997Z,10.30
2017-11-01T23:45:04.717Z,12.40
2017-11-01T23:47:31.349Z,11.03
2017-11-01T23:49:57.940Z,12.90
2017-11-01T23:52:24.561Z,10.67
2017-11-01T23:54:51.166Z,12.10
2017-11-01T23:57:17.790Z,11.20
2017-11-01T23:59:44.397Z,14.30
